Sherman, Missouri
Current Conditions -  °F | °C
As of 2:54 AM on Monday 24 Nov 2014 (Local Time) from KSUS Reporting Station
Moderate Rain Moderate Rain  
Wind Chill: 34°   Ceiling: 1700
Heat Index: 42°   Visibility: 9mi
Dew Point: 39°   Wind: 16mph
Humidity: 89%   Direction: 280°W
Pressure: 29.33"   Gusts: 25mph
Location:  38.5691°N, 90.5462°W
Report Text: KSUS 240854Z AUTO 28014G22KT 9SM RA OVC017 06/04 A2933 RMK AO2 PK WND 31027/0828 SLP932 P0003 60031 T00560039 53043
Loading
Personal Weather Stations






























Interactive Weather Map New forecast layout! Learn more

10-Day Weather Forecast

Advertisements
Track Severe Weather on mobile